sensor_id;sensor_type;location;lat;lon;timestamp;pressure;altitude;pressure_sealevel;temperature;humidity
57094;BME280;42970;50.996;3.706;2023-02-22T00:01:51;76057.66;;;-146.65;100.00
57094;BME280;42970;50.996;3.706;2023-02-22T00:04:35;76049.59;;;-146.65;100.00
57094;BME280;42970;50.996;3.706;2023-02-22T00:07:00;76055.66;;;-146.65;100.00
57094;BME280;42970;50.996;3.706;2023-02-22T00:09:26;76057.66;;;-146.65;100.00
57094;BME280;42970;50.996;3.706;2023-02-22T00:11:51;76053.63;;;-146.65;100.00
57094;BME280;42970;50.996;3.706;2023-02-22T00:14:16;76051.63;;;-146.65;100.00
57094;BME280;42970;50.996;3.706;2023-02-22T00:16:44;76063.72;;;-146.65;100.00
57094;BME280;42970;50.996;3.706;2023-02-22T00:19:09;76061.72;;;-146.65;100.00
57094;BME280;42970;50.996;3.706;2023-02-22T00:21:35;76051.63;;;-146.65;100.00
57094;BME280;42970;50.996;3.706;2023-02-22T00:24:01;76039.50;;;-146.65;100.00
57094;BME280;42970;50.996;3.706;2023-02-22T00:26:41;76025.41;;;-146.65;100.00
57094;BME280;42970;50.996;3.706;2023-02-22T00:29:06;76053.63;;;-146.65;100.00
57094;BME280;42970;50.996;3.706;2023-02-22T00:31:36;76051.63;;;-146.65;100.00
57094;BME280;42970;50.996;3.706;2023-02-22T00:34:01;76055.66;;;-146.65;100.00
57094;BME280;42970;50.996;3.706;2023-02-22T00:36:26;76053.63;;;-146.65;100.00
57094;BME280;42970;50.996;3.706;2023-02-22T00:38:52;76045.56;;;-146.65;100.00
57094;BME280;42970;50.996;3.706;2023-02-22T00:41:17;76045.56;;;-146.65;100.00
57094;BME280;42970;50.996;3.706;2023-02-22T00:43:42;76045.56;;;-146.65;100.00
57094;BME280;42970;50.996;3.706;2023-02-22T00:46:07;76045.56;;;-146.65;100.00
57094;BME280;42970;50.996;3.706;2023-02-22T00:48:33;76051.63;;;-146.65;100.00
57094;BME280;42970;50.996;3.706;2023-02-22T00:50:58;76053.63;;;-146.65;100.00
57094;BME280;42970;50.996;3.706;2023-02-22T00:53:24;76055.66;;;-146.65;100.00
57094;BME280;42970;50.996;3.706;2023-02-22T00:55:50;76049.59;;;-146.65;100.00
57094;BME280;42970;50.996;3.706;2023-02-22T00:58:16;76047.59;;;-146.65;100.00
57094;BME280;42970;50.996;3.706;2023-02-22T01:00:43;76049.59;;;-146.65;100.00
57094;BME280;42970;50.996;3.706;2023-02-22T01:05:37;76035.47;;;-146.65;100.00
57094;BME280;42970;50.996;3.706;2023-02-22T01:08:03;76037.50;;;-146.65;100.00
57094;BME280;42970;50.996;3.706;2023-02-22T01:10:30;76033.47;;;-146.65;100.00
57094;BME280;42970;50.996;3.706;2023-02-22T01:12:56;76031.44;;;-146.65;100.00
57094;BME280;42970;50.996;3.706;2023-02-22T01:15:22;76025.41;;;-146.65;100.00
57094;BME280;42970;50.996;3.706;2023-02-22T01:17:50;76025.41;;;-146.65;100.00
57094;BME280;42970;50.996;3.706;2023-02-22T01:20:17;76025.41;;;-146.65;100.00
57094;BME280;42970;50.996;3.706;2023-02-22T01:22:44;76029.44;;;-146.65;100.00
57094;BME280;42970;50.996;3.706;2023-02-22T01:25:11;76029.44;;;-146.65;100.00
57094;BME280;42970;50.996;3.706;2023-02-22T01:27:37;76029.44;;;-146.65;100.00
57094;BME280;42970;50.996;3.706;2023-02-22T01:30:03;76023.38;;;-146.65;100.00
57094;BME280;42970;50.996;3.706;2023-02-22T01:32:33;76013.28;;;-146.65;100.00
57094;BME280;42970;50.996;3.706;2023-02-22T01:35:02;76013.28;;;-146.65;100.00
57094;BME280;42970;50.996;3.706;2023-02-22T01:37:29;75995.13;;;-146.65;100.00
57094;BME280;42970;50.996;3.706;2023-02-22T01:39:54;75989.09;;;-146.65;100.00
57094;BME280;42970;50.996;3.706;2023-02-22T01:42:20;75989.09;;;-146.65;100.00
57094;BME280;42970;50.996;3.706;2023-02-22T01:44:45;75987.06;;;-146.65;100.00
57094;BME280;42970;50.996;3.706;2023-02-22T01:47:10;75989.09;;;-146.65;100.00
57094;BME280;42970;50.996;3.706;2023-02-22T01:49:43;75985.03;;;-146.65;100.00
57094;BME280;42970;50.996;3.706;2023-02-22T01:52:13;75968.91;;;-146.65;100.00
57094;BME280;42970;50.996;3.706;2023-02-22T01:54:44;75964.88;;;-146.65;100.00
57094;BME280;42970;50.996;3.706;2023-02-22T01:59:37;75960.84;;;-146.65;100.00
57094;BME280;42970;50.996;3.706;2023-02-22T02:02:04;75960.84;;;-146.65;100.00
57094;BME280;42970;50.996;3.706;2023-02-22T02:04:29;75944.69;;;-146.65;100.00
57094;BME280;42970;50.996;3.706;2023-02-22T02:06:56;75954.78;;;-146.65;100.00
57094;BME280;42970;50.996;3.706;2023-02-22T02:09:27;75948.75;;;-146.65;100.00
57094;BME280;42970;50.996;3.706;2023-02-22T02:11:56;75946.72;;;-146.65;100.00
57094;BME280;42970;50.996;3.706;2023-02-22T02:14:24;75940.66;;;-146.65;100.00
57094;BME280;42970;50.996;3.706;2023-02-22T02:16:50;75940.66;;;-146.65;100.00
57094;BME280;42970;50.996;3.706;2023-02-22T02:19:27;75928.56;;;-146.65;100.00
57094;BME280;42970;50.996;3.706;2023-02-22T02:35:30;75936.63;;;-146.65;100.00
57094;BME280;42970;50.996;3.706;2023-02-22T02:45:50;75930.59;;;-146.65;100.00
57094;BME280;42970;50.996;3.706;2023-02-22T02:48:20;75924.53;;;-146.65;100.00
57094;BME280;42970;50.996;3.706;2023-02-22T02:50:47;75932.59;;;-146.65;100.00
57094;BME280;42970;50.996;3.706;2023-02-22T02:53:14;75924.53;;;-146.65;100.00
57094;BME280;42970;50.996;3.706;2023-02-22T02:55:42;75920.50;;;-146.65;100.00
57094;BME280;42970;50.996;3.706;2023-02-22T02:58:07;75920.50;;;-146.65;100.00
57094;BME280;42970;50.996;3.706;2023-02-22T03:00:34;75908.41;;;-146.65;100.00
57094;BME280;42970;50.996;3.706;2023-02-22T03:03:09;75896.28;;;-146.65;100.00
57094;BME280;42970;50.996;3.706;2023-02-22T03:13:20;75884.19;;;-146.65;100.00
57094;BME280;42970;50.996;3.706;2023-02-22T03:23:42;75878.13;;;-146.65;100.00
57094;BME280;42970;50.996;3.706;2023-02-22T03:26:15;75862.00;;;-146.65;100.00
57094;BME280;42970;50.996;3.706;2023-02-22T03:28:45;75864.00;;;-146.65;100.00
57094;BME280;42970;50.996;3.706;2023-02-22T03:31:16;75864.00;;;-146.65;100.00
57094;BME280;42970;50.996;3.706;2023-02-22T03:33:48;75849.91;;;-146.65;100.00
57094;BME280;42970;50.996;3.706;2023-02-22T03:36:16;75855.94;;;-146.65;100.00
57094;BME280;42970;50.996;3.706;2023-02-22T03:38:43;75847.88;;;-146.65;100.00
57094;BME280;42970;50.996;3.706;2023-02-22T03:41:10;75849.91;;;-146.65;100.00
57094;BME280;42970;50.996;3.706;2023-02-22T03:43:39;75847.88;;;-146.65;100.00
57094;BME280;42970;50.996;3.706;2023-02-22T03:46:06;75843.84;;;-146.65;100.00
57094;BME280;42970;50.996;3.706;2023-02-22T03:48:53;75839.81;;;-146.65;100.00
57094;BME280;42970;50.996;3.706;2023-02-22T03:51:24;75843.84;;;-146.65;100.00
57094;BME280;42970;50.996;3.706;2023-02-22T03:53:50;75833.75;;;-146.65;100.00
57094;BME280;42970;50.996;3.706;2023-02-22T03:56:24;75827.72;;;-146.65;100.00
57094;BME280;42970;50.996;3.706;2023-02-22T03:58:52;75819.63;;;-146.65;100.00
57094;BME280;42970;50.996;3.706;2023-02-22T04:01:19;75827.72;;;-146.65;100.00
57094;BME280;42970;50.996;3.706;2023-02-22T04:03:47;75823.66;;;-146.65;100.00
57094;BME280;42970;50.996;3.706;2023-02-22T04:06:13;75825.69;;;-146.65;100.00
57094;BME280;42970;50.996;3.706;2023-02-22T04:08:38;75805.50;;;-146.65;100.00
57094;BME280;42970;50.996;3.706;2023-02-22T04:11:03;75803.50;;;-146.65;100.00
57094;BME280;42970;50.996;3.706;2023-02-22T04:13:29;75805.50;;;-146.65;100.00
57094;BME280;42970;50.996;3.706;2023-02-22T04:15:54;75799.47;;;-146.65;100.00
57094;BME280;42970;50.996;3.706;2023-02-22T04:18:20;75805.50;;;-146.65;100.00
57094;BME280;42970;50.996;3.706;2023-02-22T04:20:45;75801.47;;;-146.65;100.00
57094;BME280;42970;50.996;3.706;2023-02-22T04:23:10;75795.44;;;-146.65;100.00
57094;BME280;42970;50.996;3.706;2023-02-22T04:25:37;75795.44;;;-146.65;100.00
57094;BME280;42970;50.996;3.706;2023-02-22T04:28:08;75775.25;;;-146.65;100.00
57094;BME280;42970;50.996;3.706;2023-02-22T04:30:33;75783.31;;;-146.65;100.00
57094;BME280;42970;50.996;3.706;2023-02-22T04:32:58;75787.38;;;-146.65;100.00
57094;BME280;42970;50.996;3.706;2023-02-22T04:35:24;75787.38;;;-146.65;100.00
57094;BME280;42970;50.996;3.706;2023-02-22T04:37:49;75791.41;;;-146.65;100.00
57094;BME280;42970;50.996;3.706;2023-02-22T04:40:14;75763.16;;;-146.65;100.00
57094;BME280;42970;50.996;3.706;2023-02-22T04:42:40;75771.22;;;-146.65;100.00
57094;BME280;42970;50.996;3.706;2023-02-22T04:45:06;75765.16;;;-146.65;100.00
57094;BME280;42970;50.996;3.706;2023-02-22T04:47:33;75761.13;;;-146.65;100.00
57094;BME280;42970;50.996;3.706;2023-02-22T04:49:58;75771.22;;;-146.65;100.00
57094;BME280;42970;50.996;3.706;2023-02-22T04:52:24;75763.16;;;-146.65;100.00
57094;BME280;42970;50.996;3.706;2023-02-22T04:54:50;75767.19;;;-146.65;100.00
57094;BME280;42970;50.996;3.706;2023-02-22T04:57:15;75749.03;;;-146.65;100.00
57094;BME280;42970;50.996;3.706;2023-02-22T04:59:40;75773.25;;;-146.65;100.00
57094;BME280;42970;50.996;3.706;2023-02-22T05:02:07;75773.25;;;-146.65;100.00
57094;BME280;42970;50.996;3.706;2023-02-22T05:04:32;75769.22;;;-146.65;100.00
57094;BME280;42970;50.996;3.706;2023-02-22T05:06:58;75775.25;;;-146.65;100.00
57094;BME280;42970;50.996;3.706;2023-02-22T05:09:23;75769.22;;;-146.65;100.00
57094;BME280;42970;50.996;3.706;2023-02-22T05:11:49;75765.16;;;-146.65;100.00
57094;BME280;42970;50.996;3.706;2023-02-22T05:14:14;75765.16;;;-146.65;100.00
57094;BME280;42970;50.996;3.706;2023-02-22T05:16:40;75759.13;;;-146.65;100.00
57094;BME280;42970;50.996;3.706;2023-02-22T05:19:05;75763.16;;;-146.65;100.00
57094;BME280;42970;50.996;3.706;2023-02-22T05:21:31;75753.06;;;-146.65;100.00
57094;BME280;42970;50.996;3.706;2023-02-22T05:23:56;75747.03;;;-146.65;100.00
57094;BME280;42970;50.996;3.706;2023-02-22T05:26:30;75757.09;;;-146.65;100.00
57094;BME280;42970;50.996;3.706;2023-02-22T05:29:01;75749.03;;;-146.65;100.00
57094;BME280;42970;50.996;3.706;2023-02-22T05:31:27;75745.00;;;-146.65;100.00
57094;BME280;42970;50.996;3.706;2023-02-22T05:33:53;75747.03;;;-146.65;100.00
57094;BME280;42970;50.996;3.706;2023-02-22T05:36:20;75740.97;;;-146.65;100.00
57094;BME280;42970;50.996;3.706;2023-02-22T05:38:45;75730.88;;;-146.65;100.00
57094;BME280;42970;50.996;3.706;2023-02-22T05:41:11;75728.88;;;-146.65;100.00
57094;BME280;42970;50.996;3.706;2023-02-22T05:43:36;75730.88;;;-146.65;100.00
57094;BME280;42970;50.996;3.706;2023-02-22T05:46:04;75734.91;;;-146.65;100.00
57094;BME280;42970;50.996;3.706;2023-02-22T05:48:35;75724.81;;;-146.65;100.00
57094;BME280;42970;50.996;3.706;2023-02-22T05:51:01;75716.75;;;-146.65;100.00
57094;BME280;42970;50.996;3.706;2023-02-22T05:53:26;75706.69;;;-146.65;100.00
57094;BME280;42970;50.996;3.706;2023-02-22T05:55:52;75708.69;;;-146.65;100.00
57094;BME280;42970;50.996;3.706;2023-02-22T05:58:19;75700.63;;;-146.65;100.00
57094;BME280;42970;50.996;3.706;2023-02-22T06:00:45;75712.72;;;-146.65;100.00
57094;BME280;42970;50.996;3.706;2023-02-22T06:03:25;75716.75;;;-146.65;100.00
57094;BME280;42970;50.996;3.706;2023-02-22T06:05:51;75726.84;;;-146.65;100.00
57094;BME280;42970;50.996;3.706;2023-02-22T06:10:51;75710.72;;;-146.65;100.00
57094;BME280;42970;50.996;3.706;2023-02-22T06:13:23;75716.75;;;-146.65;100.00
57094;BME280;42970;50.996;3.706;2023-02-22T06:15:48;75722.81;;;-146.65;100.00
57094;BME280;42970;50.996;3.706;2023-02-22T06:18:13;75714.75;;;-146.65;100.00
57094;BME280;42970;50.996;3.706;2023-02-22T06:20:39;75710.72;;;-146.65;100.00
57094;BME280;42970;50.996;3.706;2023-02-22T06:23:05;75710.72;;;-146.65;100.00
57094;BME280;42970;50.996;3.706;2023-02-22T06:25:30;75714.75;;;-146.65;100.00
57094;BME280;42970;50.996;3.706;2023-02-22T06:27:56;75706.69;;;-146.65;100.00
57094;BME280;42970;50.996;3.706;2023-02-22T06:30:22;75700.63;;;-146.65;100.00
57094;BME280;42970;50.996;3.706;2023-02-22T06:32:48;75708.69;;;-146.65;100.00
57094;BME280;42970;50.996;3.706;2023-02-22T06:35:14;75708.69;;;-146.65;100.00
57094;BME280;42970;50.996;3.706;2023-02-22T06:37:40;75706.69;;;-146.65;100.00
57094;BME280;42970;50.996;3.706;2023-02-22T06:40:05;75690.53;;;-146.65;100.00
57094;BME280;42970;50.996;3.706;2023-02-22T06:42:31;75694.56;;;-146.65;100.00
57094;BME280;42970;50.996;3.706;2023-02-22T06:44:56;75700.63;;;-146.65;100.00
57094;BME280;42970;50.996;3.706;2023-02-22T06:47:22;75694.56;;;-146.65;100.00
57094;BME280;42970;50.996;3.706;2023-02-22T06:49:54;75682.47;;;-146.65;100.00
57094;BME280;42970;50.996;3.706;2023-02-22T06:52:19;75680.44;;;-146.65;100.00
57094;BME280;42970;50.996;3.706;2023-02-22T06:54:44;75690.53;;;-146.65;100.00
57094;BME280;42970;50.996;3.706;2023-02-22T06:57:10;75678.44;;;-146.65;100.00
57094;BME280;42970;50.996;3.706;2023-02-22T06:59:35;75674.41;;;-146.65;100.00
57094;BME280;42970;50.996;3.706;2023-02-22T07:02:00;75662.31;;;-146.65;100.00
57094;BME280;42970;50.996;3.706;2023-02-22T07:04:28;75658.25;;;-146.65;100.00
57094;BME280;42970;50.996;3.706;2023-02-22T07:06:53;75658.25;;;-146.65;100.00
57094;BME280;42970;50.996;3.706;2023-02-22T07:09:18;75648.19;;;-146.65;100.00
57094;BME280;42970;50.996;3.706;2023-02-22T07:11:44;75638.09;;;-146.65;100.00
57094;BME280;42970;50.996;3.706;2023-02-22T07:14:09;75638.09;;;-146.65;100.00
57094;BME280;42970;50.996;3.706;2023-02-22T07:16:34;75634.06;;;-146.65;100.00
57094;BME280;42970;50.996;3.706;2023-02-22T07:19:00;75626.00;;;-146.65;100.00
57094;BME280;42970;50.996;3.706;2023-02-22T07:21:26;75615.91;;;-146.65;100.00
57094;BME280;42970;50.996;3.706;2023-02-22T07:23:52;75609.84;;;-146.65;100.00
57094;BME280;42970;50.996;3.706;2023-02-22T07:26:17;75605.81;;;-146.65;100.00
57094;BME280;42970;50.996;3.706;2023-02-22T07:28:43;75593.72;;;-146.65;100.00
57094;BME280;42970;50.996;3.706;2023-02-22T07:31:08;75575.56;;;-146.65;100.00
57094;BME280;42970;50.996;3.706;2023-02-22T07:33:34;75587.66;;;-146.65;100.00
57094;BME280;42970;50.996;3.706;2023-02-22T07:35:59;75589.69;;;-146.65;100.00
57094;BME280;42970;50.996;3.706;2023-02-22T07:38:25;75589.69;;;-146.65;100.00
57094;BME280;42970;50.996;3.706;2023-02-22T07:40:50;75593.72;;;-146.65;100.00
57094;BME280;42970;50.996;3.706;2023-02-22T07:43:16;75579.59;;;-146.65;100.00
57094;BME280;42970;50.996;3.706;2023-02-22T07:45:42;75589.69;;;-146.65;100.00
57094;BME280;42970;50.996;3.706;2023-02-22T07:48:08;75577.59;;;-146.65;100.00
57094;BME280;42970;50.996;3.706;2023-02-22T07:50:33;75565.47;;;-146.65;100.00
57094;BME280;42970;50.996;3.706;2023-02-22T07:53:02;75557.41;;;-146.65;100.00
57094;BME280;42970;50.996;3.706;2023-02-22T07:55:28;75543.28;;;-146.65;100.00
57094;BME280;42970;50.996;3.706;2023-02-22T07:57:58;75555.41;;;-146.65;100.00
57094;BME280;42970;50.996;3.706;2023-02-22T08:00:25;75561.44;;;-146.65;100.00
57094;BME280;42970;50.996;3.706;2023-02-22T08:02:51;75565.47;;;-146.65;100.00
57094;BME280;42970;50.996;3.706;2023-02-22T08:05:17;75545.31;;;-146.65;100.00
57094;BME280;42970;50.996;3.706;2023-02-22T08:07:42;75533.22;;;-146.65;100.00
57094;BME280;42970;50.996;3.706;2023-02-22T08:10:08;75529.16;;;-146.65;100.00
57094;BME280;42970;50.996;3.706;2023-02-22T08:12:33;75507.00;;;-146.65;100.00
57094;BME280;42970;50.996;3.706;2023-02-22T08:15:00;75498.91;;;-146.65;100.00
57094;BME280;42970;50.996;3.706;2023-02-22T08:17:25;75484.78;;;-146.65;100.00
57094;BME280;42970;50.996;3.706;2023-02-22T08:19:51;75480.75;;;-146.65;100.00
57094;BME280;42970;50.996;3.706;2023-02-22T08:22:16;75460.59;;;-146.65;100.00
57094;BME280;42970;50.996;3.706;2023-02-22T08:24:42;75454.53;;;-146.65;100.00
57094;BME280;42970;50.996;3.706;2023-02-22T08:27:07;75456.56;;;-146.65;100.00
57094;BME280;42970;50.996;3.706;2023-02-22T08:29:33;75436.38;;;-146.65;100.00
57094;BME280;42970;50.996;3.706;2023-02-22T08:31:59;75432.34;;;-146.65;100.00
57094;BME280;42970;50.996;3.706;2023-02-22T08:34:24;75406.13;;;-146.65;100.00
57094;BME280;42970;50.996;3.706;2023-02-22T08:36:50;75402.09;;;-146.65;100.00
57094;BME280;42970;50.996;3.706;2023-02-22T08:39:15;75392.00;;;-146.65;100.00
57094;BME280;42970;50.996;3.706;2023-02-22T08:41:40;75367.81;;;-146.65;100.00
57094;BME280;42970;50.996;3.706;2023-02-22T08:44:06;75337.56;;;-146.65;100.00
57094;BME280;42970;50.996;3.706;2023-02-22T08:46:31;75329.50;;;-146.65;100.00
57094;BME280;42970;50.996;3.706;2023-02-22T08:48:56;75343.59;;;-146.65;100.00
57094;BME280;42970;50.996;3.706;2023-02-22T08:51:22;75327.47;;;-146.65;100.00
57094;BME280;42970;50.996;3.706;2023-02-22T08:53:47;75325.47;;;-146.65;100.00
57094;BME280;42970;50.996;3.706;2023-02-22T08:56:12;75291.16;;;-146.65;100.00
57094;BME280;42970;50.996;3.706;2023-02-22T08:58:38;75291.16;;;-146.65;100.00
57094;BME280;42970;50.996;3.706;2023-02-22T09:01:03;75299.25;;;-146.65;100.00
57094;BME280;42970;50.996;3.706;2023-02-22T09:03:29;75297.22;;;-146.65;100.00
57094;BME280;42970;50.996;3.706;2023-02-22T09:05:54;75313.34;;;-146.65;100.00
57094;BME280;42970;50.996;3.706;2023-02-22T09:08:21;75311.34;;;-146.65;100.00
57094;BME280;42970;50.996;3.706;2023-02-22T09:10:48;75307.31;;;-146.65;100.00
57094;BME280;42970;50.996;3.706;2023-02-22T09:13:14;75289.16;;;-146.65;100.00
57094;BME280;42970;50.996;3.706;2023-02-22T09:15:39;75279.06;;;-146.65;100.00
57094;BME280;42970;50.996;3.706;2023-02-22T09:18:05;75264.94;;;-146.65;100.00
57094;BME280;42970;50.996;3.706;2023-02-22T09:20:32;75224.59;;;-146.65;100.00
57094;BME280;42970;50.996;3.706;2023-02-22T09:23:00;75210.50;;;-146.65;100.00
57094;BME280;42970;50.996;3.706;2023-02-22T09:25:26;75196.38;;;-146.65;100.00
57094;BME280;42970;50.996;3.706;2023-02-22T09:27:52;75192.34;;;-146.65;100.00
57094;BME280;42970;50.996;3.706;2023-02-22T09:30:39;75194.34;;;-146.65;100.00
57094;BME280;42970;50.996;3.706;2023-02-22T09:33:06;75160.06;;;-146.65;100.00
57094;BME280;42970;50.996;3.706;2023-02-22T09:35:34;75133.84;;;-146.65;100.00
57094;BME280;42970;50.996;3.706;2023-02-22T09:38:01;75107.63;;;-146.65;100.00
57094;BME280;42970;50.996;3.706;2023-02-22T09:40:30;75127.81;;;-146.65;100.00
57094;BME280;42970;50.996;3.706;2023-02-22T09:45:39;75129.81;;;-146.65;100.00
57094;BME280;42970;50.996;3.706;2023-02-22T09:48:09;75115.69;;;-146.65;100.00
57094;BME280;42970;50.996;3.706;2023-02-22T09:50:36;75121.75;;;-146.65;100.00
57094;BME280;42970;50.996;3.706;2023-02-22T09:53:02;75099.56;;;-146.65;100.00
57094;BME280;42970;50.996;3.706;2023-02-22T09:55:39;75119.72;;;-146.65;100.00
57094;BME280;42970;50.996;3.706;2023-02-22T09:58:12;75111.66;;;-146.65;100.00
57094;BME280;42970;50.996;3.706;2023-02-22T10:00:41;75091.50;;;-146.65;100.00
57094;BME280;42970;50.996;3.706;2023-02-22T10:03:14;75073.34;;;-146.65;100.00
57094;BME280;42970;50.996;3.706;2023-02-22T10:05:48;75097.56;;;-146.65;100.00
57094;BME280;42970;50.996;3.706;2023-02-22T10:08:17;75107.63;;;-146.65;100.00
57094;BME280;42970;50.996;3.706;2023-02-22T10:10:44;75077.38;;;-146.65;100.00
57094;BME280;42970;50.996;3.706;2023-02-22T10:20:55;75069.31;;;-146.65;100.00
57094;BME280;42970;50.996;3.706;2023-02-22T10:25:48;75057.22;;;-146.65;100.00
57094;BME280;42970;50.996;3.706;2023-02-22T10:31:01;75035.03;;;-146.65;100.00
57094;BME280;42970;50.996;3.706;2023-02-22T10:33:32;75053.19;;;-146.65;100.00
57094;BME280;42970;50.996;3.706;2023-02-22T10:36:00;75037.03;;;-146.65;100.00
57094;BME280;42970;50.996;3.706;2023-02-22T10:38:29;75035.03;;;-146.65;100.00
57094;BME280;42970;50.996;3.706;2023-02-22T10:43:21;75022.94;;;-146.65;100.00
57094;BME280;42970;50.996;3.706;2023-02-22T10:45:47;75020.91;;;-146.65;100.00
57094;BME280;42970;50.996;3.706;2023-02-22T10:48:15;75022.94;;;-146.65;100.00
57094;BME280;42970;50.996;3.706;2023-02-22T10:50:43;75028.97;;;-146.65;100.00
57094;BME280;42970;50.996;3.706;2023-02-22T10:53:09;75018.91;;;-146.65;100.00
57094;BME280;42970;50.996;3.706;2023-02-22T10:55:35;75033.00;;;-146.65;100.00
57094;BME280;42970;50.996;3.706;2023-02-22T10:58:21;75026.97;;;-146.65;100.00
57094;BME280;42970;50.996;3.706;2023-02-22T11:00:46;75020.91;;;-146.65;100.00
57094;BME280;42970;50.996;3.706;2023-02-22T11:03:19;75018.91;;;-146.65;100.00
57094;BME280;42970;50.996;3.706;2023-02-22T11:05:45;75016.88;;;-146.65;100.00
57094;BME280;42970;50.996;3.706;2023-02-22T11:10:45;75004.78;;;-146.65;100.00
57094;BME280;42970;50.996;3.706;2023-02-22T11:13:29;74998.72;;;-146.65;100.00
57094;BME280;42970;50.996;3.706;2023-02-22T11:16:02;74984.59;;;-146.65;100.00
57094;BME280;42970;50.996;3.706;2023-02-22T11:18:41;74984.59;;;-146.65;100.00
57094;BME280;42970;50.996;3.706;2023-02-22T11:21:08;75000.75;;;-146.65;100.00
57094;BME280;42970;50.996;3.706;2023-02-22T11:23:36;75010.81;;;-146.65;100.00
57094;BME280;42970;50.996;3.706;2023-02-22T11:28:33;74988.66;;;-146.65;100.00
57094;BME280;42970;50.996;3.706;2023-02-22T11:31:14;74988.66;;;-146.65;100.00
57094;BME280;42970;50.996;3.706;2023-02-22T11:33:48;74996.72;;;-146.65;100.00
57094;BME280;42970;50.996;3.706;2023-02-22T11:36:28;75004.78;;;-146.65;100.00
57094;BME280;42970;50.996;3.706;2023-02-22T11:38:55;75024.94;;;-146.65;100.00
57094;BME280;42970;50.996;3.706;2023-02-22T11:41:26;75004.78;;;-146.65;100.00
57094;BME280;42970;50.996;3.706;2023-02-22T11:43:52;74984.59;;;-146.65;100.00
57094;BME280;42970;50.996;3.706;2023-02-22T11:46:19;74992.69;;;-146.65;100.00
57094;BME280;42970;50.996;3.706;2023-02-22T11:54:04;75033.00;;;-146.65;100.00
57094;BME280;42970;50.996;3.706;2023-02-22T11:56:39;75028.97;;;-146.65;100.00
57094;BME280;42970;50.996;3.706;2023-02-22T11:59:11;75041.06;;;-146.65;100.00
57094;BME280;42970;50.996;3.706;2023-02-22T12:02:00;75051.16;;;-146.65;100.00
57094;BME280;42970;50.996;3.706;2023-02-22T12:04:44;75028.97;;;-146.65;100.00
57094;BME280;42970;50.996;3.706;2023-02-22T12:12:20;75024.94;;;-146.65;100.00
57094;BME280;42970;50.996;3.706;2023-02-22T12:22:17;75069.31;;;-146.65;100.00
57094;BME280;42970;50.996;3.706;2023-02-22T12:25:05;75117.72;;;-146.65;100.00
57094;BME280;42970;50.996;3.706;2023-02-22T12:27:44;75141.91;;;-146.65;100.00
57094;BME280;42970;50.996;3.706;2023-02-22T12:30:17;75117.72;;;-146.65;100.00
57094;BME280;42970;50.996;3.706;2023-02-22T12:32:51;75141.91;;;-146.65;100.00
57094;BME280;42970;50.996;3.706;2023-02-22T12:37:58;75137.88;;;-146.65;100.00
57094;BME280;42970;50.996;3.706;2023-02-22T12:43:21;75150.00;;;-146.65;100.00
57094;BME280;42970;50.996;3.706;2023-02-22T12:48:47;75154.03;;;-146.65;100.00
57094;BME280;42970;50.996;3.706;2023-02-22T12:53:48;75145.94;;;-146.65;100.00
57094;BME280;42970;50.996;3.706;2023-02-22T12:58:54;75172.16;;;-146.65;100.00
57094;BME280;42970;50.996;3.706;2023-02-22T13:01:23;75156.03;;;-146.65;100.00
57094;BME280;42970;50.996;3.706;2023-02-22T13:03:50;75166.13;;;-146.65;100.00
57094;BME280;42970;50.996;3.706;2023-02-22T13:09:13;75150.00;;;-146.65;100.00
57094;BME280;42970;50.996;3.706;2023-02-22T13:11:42;75150.00;;;-146.65;100.00
57094;BME280;42970;50.996;3.706;2023-02-22T13:16:58;75154.03;;;-146.65;100.00
57094;BME280;42970;50.996;3.706;2023-02-22T13:19:29;75152.00;;;-146.65;100.00
57094;BME280;42970;50.996;3.706;2023-02-22T13:29:24;75143.94;;;-146.65;100.00
57094;BME280;42970;50.996;3.706;2023-02-22T13:32:03;75143.94;;;-146.65;100.00
57094;BME280;42970;50.996;3.706;2023-02-22T13:37:21;75125.78;;;-146.65;100.00
57094;BME280;42970;50.996;3.706;2023-02-22T13:47:36;75145.94;;;-146.65;100.00
57094;BME280;42970;50.996;3.706;2023-02-22T13:52:52;75135.88;;;-146.65;100.00
57094;BME280;42970;50.996;3.706;2023-02-22T13:55:21;75137.88;;;-146.65;100.00
57094;BME280;42970;50.996;3.706;2023-02-22T13:57:48;75135.88;;;-146.65;100.00
57094;BME280;42970;50.996;3.706;2023-02-22T14:02:57;75123.78;;;-146.65;100.00
57094;BME280;42970;50.996;3.706;2023-02-22T14:13:09;75129.81;;;-146.65;100.00
57094;BME280;42970;50.996;3.706;2023-02-22T14:15:35;75143.94;;;-146.65;100.00
57094;BME280;42970;50.996;3.706;2023-02-22T14:18:01;75145.94;;;-146.65;100.00
57094;BME280;42970;50.996;3.706;2023-02-22T14:22:57;75141.91;;;-146.65;100.00
57094;BME280;42970;50.996;3.706;2023-02-22T14:25:30;75135.88;;;-146.65;100.00
57094;BME280;42970;50.996;3.706;2023-02-22T14:27:56;75129.81;;;-146.65;100.00
57094;BME280;42970;50.996;3.706;2023-02-22T14:30:27;75137.88;;;-146.65;100.00
57094;BME280;42970;50.996;3.706;2023-02-22T14:32:53;75125.78;;;-146.65;100.00
57094;BME280;42970;50.996;3.706;2023-02-22T14:35:18;75123.78;;;-146.65;100.00
57094;BME280;42970;50.996;3.706;2023-02-22T14:37:52;75125.78;;;-146.65;100.00
57094;BME280;42970;50.996;3.706;2023-02-22T14:40:26;75125.78;;;-146.65;100.00
57094;BME280;42970;50.996;3.706;2023-02-22T14:43:00;75121.75;;;-146.65;100.00
57094;BME280;42970;50.996;3.706;2023-02-22T14:45:28;75109.66;;;-146.65;100.00
57094;BME280;42970;50.996;3.706;2023-02-22T14:48:21;75091.50;;;-146.65;100.00
57094;BME280;42970;50.996;3.706;2023-02-22T14:51:00;75111.66;;;-146.65;100.00
57094;BME280;42970;50.996;3.706;2023-02-22T14:53:36;75107.63;;;-146.65;100.00